Time;durP1;ratioP1;P1;durP2;ratioP2;P2;SDS_P1;SDS_P2;PMS_P1;PMS_P2;Temp;Humidity;BMP_temperature;BMP_pressure;BME280_temperature;BME280_humidity;BME280_pressure;Samples;Min_cycle;Max_cycle;Signal;HPM_P1;HPM_P2
2024/02/08 05:54:45;;;;;;;5.65;1.05;;;;;;;;;;5064954;27;20212;-64
2024/02/08 05:57:12;;;;;;;5.97;1.50;;;;;;;;;;5045710;28;20140;-64
2024/02/08 05:59:44;;;;;;;5.65;1.20;;;;;;;;;;5029188;28;20041;-65
2024/02/08 06:02:22;;;;;;;3.80;1.38;;;;;;;;;;5045538;28;20053;-65
2024/02/08 06:04:59;;;;;;;4.40;1.50;;;;;;;;;;5014810;28;20504;-65
2024/02/08 06:07:29;;;;;;;9.27;2.53;;;;;;;;;;5034566;28;20669;-65
2024/02/08 06:10:13;;;;;;;8.15;1.45;;;;;;;;;;5026011;28;20049;-65
2024/02/08 06:12:43;;;;;;;2.63;0.95;;;;;;;;;;5027007;28;20056;-63
2024/02/08 06:15:21;;;;;;;8.98;2.30;;;;;;;;;;5023420;28;20136;-63
2024/02/08 06:17:57;;;;;;;4.77;1.30;;;;;;;;;;5023223;28;20118;-64
2024/02/08 06:20:33;;;;;;;6.22;1.55;;;;;;;;;;5029654;28;20060;-63
2024/02/08 06:23:16;;;;;;;5.55;1.63;;;;;;;;;;5043489;28;20049;-63
2024/02/08 06:26:20;;;;;;;5.03;1.52;;;;;;;;;;5019600;28;20057;-64
2024/02/08 06:28:33;;;;;;;9.70;1.60;;;;;;;;;;5041276;28;20081;-65
2024/02/08 06:31:06;;;;;;;7.50;1.40;;;;;;;;;;5044884;28;20057;-65
2024/02/08 06:33:42;;;;;;;7.15;1.83;;;;;;;;;;5016844;28;20049;-66
2024/02/08 06:36:09;;;;;;;5.97;1.02;;;;;;;;;;5033537;28;20138;-65
2024/02/08 06:38:51;;;;;;;9.00;1.77;;;;;;;;;;5031750;28;20049;-63
2024/02/08 06:41:24;;;;;;;6.63;1.45;;;;;;;;;;5031285;28;20077;-63
2024/02/08 06:44:33;;;;;;;5.00;1.20;;;;;;;;;;5027900;28;20085;-65
2024/02/08 06:46:48;;;;;;;10.00;1.48;;;;;;;;;;5046531;28;20054;-65
2024/02/08 07:41:53;;;;;;;18.27;7.22;;;;;;;;;;5016375;28;20267;-63
2024/02/08 07:44:22;;;;;;;40.30;12.48;;;;;;;;;;4995103;28;20132;-64
2024/02/08 07:46:54;;;;;;;11.32;2.97;;;;;;;;;;5015464;28;20053;-63
2024/02/08 07:49:29;;;;;;;8.38;2.15;;;;;;;;;;5016452;28;20069;-64
2024/02/08 07:51:58;;;;;;;6.57;1.75;;;;;;;;;;5017046;28;20119;-63
2024/02/08 07:54:30;;;;;;;13.07;2.25;;;;;;;;;;5000776;28;20073;-64
2024/02/08 07:57:00;;;;;;;14.38;3.10;;;;;;;;;;5017626;28;20107;-64
2024/02/08 07:59:27;;;;;;;6.32;2.28;;;;;;;;;;5004900;28;20049;-64
2024/02/08 08:01:57;;;;;;;6.20;1.83;;;;;;;;;;5017235;28;20060;-63
2024/02/08 08:07:13;;;;;;;6.68;2.22;;;;;;;;;;5019138;28;20134;-65
2024/02/08 08:09:41;;;;;;;5.78;2.08;;;;;;;;;;5017699;28;20136;-64
2024/02/08 08:12:08;;;;;;;11.73;2.40;;;;;;;;;;5015946;28;20060;-63
2024/02/08 08:17:39;;;;;;;9.32;2.47;;;;;;;;;;5026221;28;20116;-64
2024/02/08 08:20:15;;;;;;;15.68;3.55;;;;;;;;;;5014528;28;20053;-63
2024/02/08 08:22:54;;;;;;;10.82;3.38;;;;;;;;;;5017441;28;20038;-63
2024/02/08 08:25:59;;;;;;;16.77;3.65;;;;;;;;;;4942247;28;20054;-64
2024/02/08 08:28:39;;;;;;;13.13;3.65;;;;;;;;;;4994063;28;20049;-63
2024/02/08 08:31:35;;;;;;;12.77;2.83;;;;;;;;;;4991088;28;20056;-63
2024/02/08 08:37:20;;;;;;;7.07;2.63;;;;;;;;;;5030582;28;20045;-64
2024/02/08 08:42:49;;;;;;;8.20;2.72;;;;;;;;;;5015554;28;20136;-64
2024/02/08 08:45:20;;;;;;;13.10;3.33;;;;;;;;;;4992533;28;20056;-64
2024/02/08 08:47:51;;;;;;;12.60;4.43;;;;;;;;;;5016642;28;20086;-65
2024/02/08 08:50:19;;;;;;;9.23;3.53;;;;;;;;;;5016192;28;20057;-63
2024/02/08 08:52:49;;;;;;;17.45;3.88;;;;;;;;;;5012975;28;20049;-63
2024/02/08 08:55:18;;;;;;;12.80;3.28;;;;;;;;;;4946139;28;20049;-64
2024/02/08 08:57:51;;;;;;;5.50;2.30;;;;;;;;;;5016281;28;20045;-64
2024/02/08 09:00:31;;;;;;;9.20;3.30;;;;;;;;;;5012600;28;20126;-64
2024/02/08 09:02:59;;;;;;;11.70;3.53;;;;;;;;;;5031977;28;20099;-63
2024/02/08 09:05:36;;;;;;;9.05;4.00;;;;;;;;;;4946697;28;20353;-63
2024/02/08 09:08:08;;;;;;;8.80;3.72;;;;;;;;;;5014478;28;20051;-63
2024/02/08 09:10:35;;;;;;;15.05;5.57;;;;;;;;;;5028909;28;20050;-64
2024/02/08 09:13:07;;;;;;;13.45;4.65;;;;;;;;;;5015680;28;20069;-64
2024/02/08 09:15:48;;;;;;;8.15;2.78;;;;;;;;;;5007710;28;20041;-64
2024/02/08 09:18:15;;;;;;;11.20;2.95;;;;;;;;;;5031587;28;20346;-64
2024/02/08 09:20:44;;;;;;;7.85;3.20;;;;;;;;;;5030448;28;20201;-63
2024/02/08 09:23:20;;;;;;;8.35;3.00;;;;;;;;;;5027282;28;20053;-63
2024/02/08 09:25:48;;;;;;;12.45;3.70;;;;;;;;;;5008675;28;20052;-64
2024/02/08 09:28:26;;;;;;;17.37;4.20;;;;;;;;;;5015102;28;20124;-63
2024/02/08 09:30:55;;;;;;;7.53;3.08;;;;;;;;;;5012446;28;20373;-64
2024/02/08 09:33:31;;;;;;;8.68;3.28;;;;;;;;;;5026660;28;20053;-65
2024/02/08 09:36:03;;;;;;;14.48;3.30;;;;;;;;;;5007982;28;20085;-64
2024/02/08 09:38:42;;;;;;;10.25;2.80;;;;;;;;;;5003504;28;20137;-63
2024/02/08 09:41:10;;;;;;;13.70;3.13;;;;;;;;;;5006420;28;20500;-63
2024/02/08 09:43:39;;;;;;;8.50;3.00;;;;;;;;;;4976430;28;20054;-63
2024/02/08 09:46:10;;;;;;;10.25;3.00;;;;;;;;;;5024824;28;20049;-63
2024/02/08 09:48:43;;;;;;;11.68;3.47;;;;;;;;;;5012370;28;20087;-64
2024/02/08 09:51:23;;;;;;;9.52;3.30;;;;;;;;;;5014897;28;20060;-64
2024/02/08 09:54:14;;;;;;;13.73;3.30;;;;;;;;;;4978615;28;20053;-64
2024/02/08 09:56:50;;;;;;;12.57;3.25;;;;;;;;;;5028213;28;20057;-64
2024/02/08 09:59:33;;;;;;;11.38;2.83;;;;;;;;;;5030741;28;20052;-65
2024/02/08 10:02:20;;;;;;;15.85;3.80;;;;;;;;;;5020963;28;20050;-63
2024/02/08 10:04:49;;;;;;;12.35;3.15;;;;;;;;;;5007474;28;20136;-65
2024/02/08 10:07:19;;;;;;;13.07;3.22;;;;;;;;;;5019427;28;20075;-64
2024/02/08 10:09:47;;;;;;;16.88;4.20;;;;;;;;;;5014078;28;20137;-64
2024/02/08 10:12:20;;;;;;;10.95;3.13;;;;;;;;;;5015968;28;20045;-64
2024/02/08 10:14:54;;;;;;;9.90;3.03;;;;;;;;;;5000112;28;20053;-64
2024/02/08 10:17:24;;;;;;;20.25;4.18;;;;;;;;;;5010693;28;20049;-64
2024/02/08 10:22:42;;;;;;;13.35;3.28;;;;;;;;;;5018193;28;20056;-63
2024/02/08 10:27:56;;;;;;;10.90;3.13;;;;;;;;;;4983354;28;20053;-63
2024/02/08 10:30:25;;;;;;;11.00;3.50;;;;;;;;;;5013981;28;20061;-64
2024/02/08 10:32:53;;;;;;;4.28;2.17;;;;;;;;;;5031634;28;20148;-63
2024/02/08 10:35:21;;;;;;;15.30;4.20;;;;;;;;;;4965376;28;20049;-64
2024/02/08 10:38:07;;;;;;;12.90;3.70;;;;;;;;;;5027792;28;20131;-64
2024/02/08 10:40:39;;;;;;;11.52;3.30;;;;;;;;;;5017054;28;20110;-64
2024/02/08 10:43:17;;;;;;;18.17;3.97;;;;;;;;;;5034572;28;20072;-65
2024/02/08 10:45:49;;;;;;;16.65;4.22;;;;;;;;;;5010233;28;20056;-65
2024/02/08 10:48:17;;;;;;;16.88;4.45;;;;;;;;;;5019713;28;20115;-63
2024/02/08 10:50:45;;;;;;;14.38;3.63;;;;;;;;;;5032366;28;20060;-64
2024/02/08 10:53:43;;;;;;;7.97;2.88;;;;;;;;;;5029618;28;20073;-64
2024/02/08 10:56:14;;;;;;;11.80;3.15;;;;;;;;;;5025395;28;20060;-63
2024/02/08 10:58:55;;;;;;;17.05;4.15;;;;;;;;;;5034082;28;20060;-64
2024/02/08 11:04:17;;;;;;;11.30;3.50;;;;;;;;;;5003995;28;20053;-65
2024/02/08 11:06:54;;;;;;;12.95;4.00;;;;;;;;;;5018620;28;20050;-64
2024/02/08 11:09:27;;;;;;;7.10;2.50;;;;;;;;;;5008306;28;20077;-64
2024/02/08 11:12:00;;;;;;;20.77;3.65;;;;;;;;;;5023954;28;20058;-64
2024/02/08 11:14:32;;;;;;;13.65;3.88;;;;;;;;;;5027524;28;20057;-65
2024/02/08 11:17:03;;;;;;;16.80;4.13;;;;;;;;;;5015707;28;20057;-65
2024/02/08 11:19:35;;;;;;;13.23;4.05;;;;;;;;;;5015339;28;20063;-64
2024/02/08 11:22:24;;;;;;;12.45;3.78;;;;;;;;;;5018496;28;20089;-65
2024/02/08 11:24:58;;;;;;;11.68;3.67;;;;;;;;;;4995170;28;20056;-65
2024/02/08 11:27:27;;;;;;;10.57;3.30;;;;;;;;;;5012163;28;20045;-65
2024/02/08 11:29:58;;;;;;;9.88;3.03;;;;;;;;;;5029818;28;20041;-66
2024/02/08 11:32:27;;;;;;;12.93;3.80;;;;;;;;;;5017243;28;20071;-65
2024/02/08 11:35:00;;;;;;;13.10;4.07;;;;;;;;;;5002027;28;20047;-65
2024/02/08 11:37:30;;;;;;;12.20;3.65;;;;;;;;;;5022016;28;20245;-65
2024/02/08 11:40:09;;;;;;;13.18;3.88;;;;;;;;;;5027978;28;20057;-65
2024/02/08 11:42:37;;;;;;;7.72;2.67;;;;;;;;;;5016501;28;20049;-64
2024/02/08 11:45:09;;;;;;;10.30;3.40;;;;;;;;;;5014995;28;20849;-64
2024/02/08 11:47:37;;;;;;;7.68;2.53;;;;;;;;;;5032969;28;20064;-65
2024/02/08 11:50:08;;;;;;;21.02;4.28;;;;;;;;;;5017163;28;20053;-65
2024/02/08 11:52:36;;;;;;;8.45;3.85;;;;;;;;;;5032853;28;20065;-65
2024/02/08 11:55:15;;;;;;;11.00;3.55;;;;;;;;;;5014331;28;20111;-66
2024/02/08 11:57:42;;;;;;;16.52;3.60;;;;;;;;;;5017007;28;20087;-65
2024/02/08 12:00:16;;;;;;;12.52;3.10;;;;;;;;;;5017754;28;20053;-66
2024/02/08 12:02:53;;;;;;;12.88;3.50;;;;;;;;;;5023978;28;20073;-65
2024/02/08 12:05:20;;;;;;;12.52;3.63;;;;;;;;;;4996643;28;20152;-65
2024/02/08 12:07:48;;;;;;;9.63;3.38;;;;;;;;;;5015903;28;20065;-65
2024/02/08 12:10:17;;;;;;;9.52;3.50;;;;;;;;;;5020041;28;20060;-65
2024/02/08 12:12:45;;;;;;;10.63;3.78;;;;;;;;;;5014370;28;20053;-65
2024/02/08 12:15:15;;;;;;;11.13;3.55;;;;;;;;;;4986041;28;20144;-65
2024/02/08 12:17:48;;;;;;;15.07;3.63;;;;;;;;;;5017012;28;20057;-66
2024/02/08 12:20:18;;;;;;;13.32;4.22;;;;;;;;;;5018641;28;20057;-65
2024/02/08 12:22:53;;;;;;;10.98;3.47;;;;;;;;;;5016978;28;20063;-65
2024/02/08 12:25:27;;;;;;;13.57;4.13;;;;;;;;;;5003598;28;20045;-65
2024/02/08 12:28:00;;;;;;;9.15;3.08;;;;;;;;;;5019412;28;20045;-67
2024/02/08 12:30:32;;;;;;;17.60;4.00;;;;;;;;;;5021309;28;20092;-67
2024/02/08 12:33:07;;;;;;;14.85;4.85;;;;;;;;;;5033735;28;20112;-65
2024/02/08 12:35:40;;;;;;;10.60;4.07;;;;;;;;;;4963419;28;20107;-65
2024/02/08 12:38:11;;;;;;;21.23;6.47;;;;;;;;;;5016898;28;20049;-65
2024/02/08 12:40:42;;;;;;;11.82;4.25;;;;;;;;;;5020004;28;20140;-67
2024/02/08 12:43:30;;;;;;;13.77;4.00;;;;;;;;;;5017344;28;20049;-67
2024/02/08 12:46:01;;;;;;;10.60;3.10;;;;;;;;;;5016569;28;20215;-65
2024/02/08 12:48:49;;;;;;;25.23;4.47;;;;;;;;;;5022258;28;20049;-66
2024/02/08 12:51:20;;;;;;;13.68;4.20;;;;;;;;;;5015066;28;20150;-66
2024/02/08 12:53:57;;;;;;;14.20;4.70;;;;;;;;;;5019963;28;20052;-66
2024/02/08 12:56:26;;;;;;;10.57;2.88;;;;;;;;;;5018120;28;20051;-66
2024/02/08 12:59:01;;;;;;;11.95;4.38;;;;;;;;;;5019660;28;20053;-67
2024/02/08 13:01:34;;;;;;;13.65;3.97;;;;;;;;;;5012924;28;20088;-65
2024/02/08 13:04:00;;;;;;;16.40;4.72;;;;;;;;;;5028353;28;20041;-67
2024/02/08 13:06:28;;;;;;;12.57;3.60;;;;;;;;;;5008555;28;20061;-66
2024/02/08 13:09:25;;;;;;;13.07;2.83;;;;;;;;;;5017795;28;20060;-66
2024/02/08 13:12:23;;;;;;;13.65;3.70;;;;;;;;;;5018993;28;20136;-65
2024/02/08 13:15:02;;;;;;;3.63;2.05;;;;;;;;;;4952478;28;20061;-64
2024/02/08 13:17:35;;;;;;;9.95;2.20;;;;;;;;;;5008075;28;20061;-65
2024/02/08 13:20:12;;;;;;;9.75;2.72;;;;;;;;;;5018406;28;20132;-66
2024/02/08 13:22:43;;;;;;;11.65;3.72;;;;;;;;;;5035825;28;20061;-66
2024/02/08 13:25:13;;;;;;;10.07;3.28;;;;;;;;;;5003430;28;20107;-64
2024/02/08 13:27:45;;;;;;;5.47;2.40;;;;;;;;;;5020480;28;20048;-63
2024/02/08 13:30:15;;;;;;;13.38;3.35;;;;;;;;;;5019759;28;20064;-65
2024/02/08 13:32:44;;;;;;;3.55;1.52;;;;;;;;;;5026169;28;20050;-65
2024/02/08 13:35:18;;;;;;;11.07;3.05;;;;;;;;;;4993266;28;20045;-65
2024/02/08 13:38:02;;;;;;;10.07;2.53;;;;;;;;;;5018084;28;20064;-66
2024/02/08 13:40:29;;;;;;;2.70;1.35;;;;;;;;;;5016384;28;20046;-65
2024/02/08 13:42:59;;;;;;;8.45;2.15;;;;;;;;;;5017687;28;20061;-65
2024/02/08 13:45:28;;;;;;;6.80;2.33;;;;;;;;;;4976089;28;20064;-67
2024/02/08 13:48:10;;;;;;;7.90;2.15;;;;;;;;;;5018493;28;20041;-63
2024/02/08 13:50:55;;;;;;;4.40;2.22;;;;;;;;;;5019734;28;20053;-65
2024/02/08 13:53:22;;;;;;;9.68;2.45;;;;;;;;;;5006873;28;20080;-64
2024/02/08 13:56:02;;;;;;;5.68;1.98;;;;;;;;;;4996741;28;20045;-65
2024/02/08 13:58:31;;;;;;;5.88;1.92;;;;;;;;;;5016651;28;20072;-64
2024/02/08 14:00:59;;;;;;;;;;;;;;;;;;5019205;28;20041;-67
2024/02/08 14:03:29;;;;;;;9.45;2.75;;;;;;;;;;5032837;28;19929;-68
2024/02/08 14:05:56;;;;;;;5.35;2.33;;;;;;;;;;5008449;28;20064;-67
2024/02/08 14:08:27;;;;;;;6.60;2.10;;;;;;;;;;5018804;28;20064;-65
2024/02/08 14:10:54;;;;;;;16.80;4.55;;;;;;;;;;5018171;28;20076;-66
2024/02/08 14:13:28;;;;;;;8.95;2.58;;;;;;;;;;5013854;28;20048;-65
2024/02/08 14:16:00;;;;;;;7.57;1.90;;;;;;;;;;5004000;28;20046;-66
2024/02/08 14:18:31;;;;;;;5.03;1.63;;;;;;;;;;5018673;28;20132;-66
2024/02/08 14:21:00;;;;;;;5.15;1.70;;;;;;;;;;5017936;28;20115;-66
2024/02/08 14:23:31;;;;;;;7.88;1.80;;;;;;;;;;5014796;28;20131;-66
2024/02/08 14:26:30;;;;;;;3.53;1.38;;;;;;;;;;4996423;28;20057;-66
2024/02/08 14:28:58;;;;;;;4.25;1.40;;;;;;;;;;5016265;28;20059;-66
2024/02/08 14:31:35;;;;;;;6.38;2.63;;;;;;;;;;5014214;28;20060;-66
2024/02/08 14:34:02;;;;;;;5.60;1.70;;;;;;;;;;5018316;28;20057;-66
2024/02/08 14:36:32;;;;;;;3.80;0.93;;;;;;;;;;5018230;28;20053;-66
2024/02/08 14:39:01;;;;;;;3.33;1.33;;;;;;;;;;5018391;28;20063;-66
2024/02/08 14:41:33;;;;;;;2.80;1.25;;;;;;;;;;5006975;28;20057;-67
2024/02/08 14:44:07;;;;;;;7.60;1.60;;;;;;;;;;5031865;28;20049;-68
2024/02/08 14:46:40;;;;;;;6.13;1.30;;;;;;;;;;4972494;28;20073;-67
2024/02/08 14:49:23;;;;;;;8.38;1.30;;;;;;;;;;5033727;28;20052;-67
2024/02/08 14:52:24;;;;;;;1.48;0.80;;;;;;;;;;5011367;28;20057;-66
2024/02/08 14:54:54;;;;;;;3.53;1.38;;;;;;;;;;4979282;28;20056;-66
2024/02/08 14:57:26;;;;;;;3.28;1.02;;;;;;;;;;5025457;28;20052;-67
2024/02/08 15:00:49;;;;;;;6.50;2.88;;;;;;;;;;5020200;28;20041;-66
2024/02/08 15:03:02;;;;;;;11.40;3.17;;;;;;;;;;5010847;28;20053;-66
2024/02/08 15:05:46;;;;;;;5.03;1.48;;;;;;;;;;4968320;28;20064;-65
2024/02/08 15:11:02;;;;;;;6.47;1.48;;;;;;;;;;4997943;28;20049;-67
2024/02/08 15:13:38;;;;;;;3.88;1.55;;;;;;;;;;4994788;28;20266;-67
2024/02/08 15:16:21;;;;;;;3.67;1.60;;;;;;;;;;4982579;28;20140;-68
2024/02/08 15:18:55;;;;;;;4.50;1.15;;;;;;;;;;5035449;28;20060;-68
2024/02/08 15:21:24;;;;;;;2.97;1.13;;;;;;;;;;5013631;28;20053;-67
2024/02/08 15:26:37;;;;;;;6.32;1.13;;;;;;;;;;4997234;28;20057;-67
2024/02/08 15:29:08;;;;;;;4.20;1.35;;;;;;;;;;5017491;28;20107;-66
2024/02/08 15:31:56;;;;;;;4.75;1.25;;;;;;;;;;5022774;28;20049;-66
2024/02/08 15:34:40;;;;;;;2.63;1.40;;;;;;;;;;5029096;28;20079;-65
2024/02/08 15:37:28;;;;;;;4.57;1.70;;;;;;;;;;5016209;28;20057;-65
2024/02/08 15:40:09;;;;;;;;;;;;;;;;;;5017359;28;20091;-65
2024/02/08 15:42:43;;;;;;;3.30;1.08;;;;;;;;;;5017403;28;19924;-65
2024/02/08 15:45:13;;;;;;;7.22;1.70;;;;;;;;;;5001472;28;20045;-66
2024/02/08 15:48:00;;;;;;;4.13;1.40;;;;;;;;;;5018046;28;20126;-65
2024/02/08 15:50:43;;;;;;;3.33;1.30;;;;;;;;;;5034120;28;20187;-64
2024/02/08 15:53:18;;;;;;;4.30;1.85;;;;;;;;;;5008534;28;20053;-65
2024/02/08 15:55:49;;;;;;;2.75;1.50;;;;;;;;;;4967478;28;20131;-65
2024/02/08 15:58:18;;;;;;;3.55;1.63;;;;;;;;;;5012726;28;20069;-64
2024/02/08 16:03:52;;;;;;;2.93;1.60;;;;;;;;;;5018205;28;20063;-64
2024/02/08 16:06:41;;;;;;;4.63;1.83;;;;;;;;;;5025594;28;20061;-65
2024/02/08 16:09:24;;;;;;;;;;;;;;;;;;5015359;28;20049;-65
2024/02/08 16:11:59;;;;;;;2.83;1.08;;;;;;;;;;5028458;28;19990;-64
2024/02/08 16:14:59;;;;;;;3.17;1.13;;;;;;;;;;4997045;28;20145;-64
2024/02/08 16:17:39;;;;;;;1.85;1.08;;;;;;;;;;4987751;28;20060;-64
2024/02/08 16:20:23;;;;;;;4.57;1.98;;;;;;;;;;4997509;28;20056;-65
2024/02/08 16:23:06;;;;;;;3.15;1.70;;;;;;;;;;4995259;28;20072;-64
2024/02/08 16:25:44;;;;;;;3.75;1.63;;;;;;;;;;5003083;28;20110;-65
2024/02/08 16:28:17;;;;;;;2.85;1.35;;;;;;;;;;5017081;28;20049;-65
2024/02/08 16:31:00;;;;;;;3.75;1.40;;;;;;;;;;5016919;28;20107;-63
2024/02/08 16:33:41;;;;;;;10.15;1.38;;;;;;;;;;5024864;28;20152;-64
2024/02/08 16:36:21;;;;;;;3.58;1.67;;;;;;;;;;5013722;28;20115;-65
2024/02/08 16:38:57;;;;;;;3.80;1.48;;;;;;;;;;5013868;28;20123;-65
2024/02/08 16:41:32;;;;;;;2.58;1.20;;;;;;;;;;5012927;28;20138;-65
2024/02/08 16:44:03;;;;;;;4.40;1.75;;;;;;;;;;5014536;28;20128;-65
2024/02/08 16:46:36;;;;;;;6.03;3.08;;;;;;;;;;4991020;28;20057;-64
2024/02/08 16:49:06;;;;;;;3.80;1.85;;;;;;;;;;5018455;28;20057;-66
2024/02/08 16:51:44;;;;;;;3.72;2.05;;;;;;;;;;5013941;28;20057;-66
2024/02/08 16:54:29;;;;;;;4.20;2.17;;;;;;;;;;5014740;28;20108;-66
2024/02/08 16:56:57;;;;;;;3.35;1.50;;;;;;;;;;4967068;28;20144;-65
2024/02/08 16:59:28;;;;;;;5.35;2.25;;;;;;;;;;5008692;28;20271;-65
2024/02/08 17:02:04;;;;;;;3.85;1.63;;;;;;;;;;5014805;28;20065;-64
2024/02/08 17:04:47;;;;;;;2.50;1.45;;;;;;;;;;5006068;28;20057;-64
2024/02/08 17:07:24;;;;;;;6.72;2.90;;;;;;;;;;4985290;28;20053;-65
2024/02/08 17:09:57;;;;;;;0.90;0.55;;;;;;;;;;5012495;28;20144;-65
2024/02/08 17:12:44;;;;;;;2.53;1.10;;;;;;;;;;5011524;28;20056;-65
2024/02/08 17:15:48;;;;;;;5.78;1.98;;;;;;;;;;4994040;28;20049;-66
2024/02/08 17:18:23;;;;;;;3.75;2.03;;;;;;;;;;5005597;28;20061;-66
2024/02/08 17:21:05;;;;;;;3.10;1.65;;;;;;;;;;5015587;28;20065;-66
2024/02/08 17:23:43;;;;;;;4.57;2.47;;;;;;;;;;5010465;28;20080;-67
2024/02/08 17:26:26;;;;;;;5.47;1.97;;;;;;;;;;5000189;28;20141;-65
2024/02/08 17:29:07;;;;;;;3.63;1.60;;;;;;;;;;5012634;28;20061;-66
2024/02/08 17:31:41;;;;;;;6.05;1.80;;;;;;;;;;5008862;28;20972;-66
2024/02/08 17:34:13;;;;;;;6.45;3.22;;;;;;;;;;5014493;28;20131;-66
2024/02/08 17:36:44;;;;;;;4.35;2.08;;;;;;;;;;4981779;28;20165;-66
2024/02/08 17:39:24;;;;;;;5.28;2.35;;;;;;;;;;5010894;28;20136;-67
2024/02/08 17:41:52;;;;;;;3.80;2.30;;;;;;;;;;5028488;28;20077;-67
2024/02/08 17:44:19;;;;;;;3.67;2.05;;;;;;;;;;5011585;28;20054;-65
2024/02/08 17:46:46;;;;;;;3.45;1.70;;;;;;;;;;4999150;28;20057;-65
2024/02/08 17:49:19;;;;;;;5.57;2.58;;;;;;;;;;5007113;28;20050;-66
2024/02/08 17:51:49;;;;;;;5.82;2.20;;;;;;;;;;5009729;28;20057;-64
2024/02/08 17:54:21;;;;;;;3.95;1.95;;;;;;;;;;5014981;28;20057;-66
2024/02/08 17:56:51;;;;;;;4.55;2.38;;;;;;;;;;4942951;28;20060;-65
2024/02/08 17:59:19;;;;;;;8.02;3.65;;;;;;;;;;5016661;28;20050;-66
2024/02/08 18:01:54;;;;;;;6.43;2.30;;;;;;;;;;5014169;28;20127;-66
2024/02/08 18:04:23;;;;;;;4.47;2.42;;;;;;;;;;5013511;28;20057;-67
2024/02/08 18:06:55;;;;;;;8.80;3.35;;;;;;;;;;4995045;28;20107;-66
2024/02/08 18:09:29;;;;;;;9.63;3.25;;;;;;;;;;5012185;28;20191;-65
2024/02/08 18:12:03;;;;;;;4.60;2.45;;;;;;;;;;5016186;28;20077;-65
2024/02/08 18:14:41;;;;;;;4.68;2.33;;;;;;;;;;5012160;28;20065;-66
2024/02/08 18:17:14;;;;;;;6.43;2.70;;;;;;;;;;4983634;28;20104;-66
2024/02/08 18:19:45;;;;;;;7.65;3.42;;;;;;;;;;5014746;28;20053;-66
2024/02/08 18:22:14;;;;;;;7.50;4.00;;;;;;;;;;5015788;28;20062;-65
2024/02/08 18:24:47;;;;;;;;;;;;;;;;;;5017439;28;20057;-66
2024/02/08 18:27:14;;;;;;;9.52;5.65;;;;;;;;;;4995188;28;19947;-68
2024/02/08 18:29:45;;;;;;;6.72;3.55;;;;;;;;;;5015346;28;20053;-66
2024/02/08 18:32:17;;;;;;;4.95;2.47;;;;;;;;;;5030138;28;20054;-65
2024/02/08 18:34:48;;;;;;;10.43;5.55;;;;;;;;;;5014203;28;20053;-66
2024/02/08 18:37:24;;;;;;;7.60;3.15;;;;;;;;;;4971163;28;20044;-65
2024/02/08 18:39:51;;;;;;;8.23;4.25;;;;;;;;;;5024289;28;20104;-67
2024/02/08 18:42:20;;;;;;;7.07;3.83;;;;;;;;;;5028343;28;20123;-67
2024/02/08 18:44:48;;;;;;;15.43;7.93;;;;;;;;;;5006547;28;20053;-67
2024/02/08 18:47:18;;;;;;;7.57;4.00;;;;;;;;;;5002183;28;20053;-66
2024/02/08 18:49:49;;;;;;;10.20;4.65;;;;;;;;;;5013970;28;20050;-65
2024/02/08 18:52:18;;;;;;;12.70;7.72;;;;;;;;;;5030499;28;20053;-66
2024/02/08 18:54:48;;;;;;;8.27;3.40;;;;;;;;;;5012865;28;20053;-66
2024/02/08 18:57:16;;;;;;;9.00;4.57;;;;;;;;;;5005382;28;20056;-67
2024/02/08 18:59:45;;;;;;;7.40;3.90;;;;;;;;;;5016668;28;20052;-66
2024/02/08 19:02:24;;;;;;;3.28;1.98;;;;;;;;;;5015664;28;20311;-66
2024/02/08 19:04:50;;;;;;;5.95;2.63;;;;;;;;;;5032416;28;20045;-67
2024/02/08 19:07:18;;;;;;;6.55;3.50;;;;;;;;;;4977398;28;20061;-66
2024/02/08 19:10:01;;;;;;;6.60;3.20;;;;;;;;;;5018564;28;20165;-65
2024/02/08 19:12:28;;;;;;;7.22;2.95;;;;;;;;;;5032380;28;20112;-66
2024/02/08 19:15:00;;;;;;;7.20;3.28;;;;;;;;;;5010133;28;20495;-66
2024/02/08 19:17:40;;;;;;;4.63;2.35;;;;;;;;;;4976558;28;20042;-65
2024/02/08 19:20:18;;;;;;;7.95;3.38;;;;;;;;;;5012950;28;20069;-67
2024/02/08 19:22:47;;;;;;;4.90;2.65;;;;;;;;;;5028197;28;20076;-67
2024/02/08 19:25:21;;;;;;;6.97;3.50;;;;;;;;;;4986131;28;20066;-66
2024/02/08 19:27:48;;;;;;;7.78;3.47;;;;;;;;;;5005233;28;20152;-65
2024/02/08 19:30:15;;;;;;;7.80;3.58;;;;;;;;;;5017025;28;20049;-66
2024/02/08 19:32:50;;;;;;;6.80;3.42;;;;;;;;;;5016294;28;20119;-67
2024/02/08 19:35:22;;;;;;;8.15;3.58;;;;;;;;;;4997624;28;20064;-67
2024/02/08 19:37:50;;;;;;;9.27;3.90;;;;;;;;;;4998598;28;20155;-66
2024/02/08 19:40:29;;;;;;;8.48;4.03;;;;;;;;;;5030073;28;20045;-66
2024/02/08 19:43:16;;;;;;;11.02;5.30;;;;;;;;;;5018185;28;20057;-65
2024/02/08 19:45:53;;;;;;;6.78;3.03;;;;;;;;;;4990615;28;20054;-66
2024/02/08 19:48:24;;;;;;;7.65;3.15;;;;;;;;;;4978503;28;20108;-68
2024/02/08 19:50:52;;;;;;;5.78;2.97;;;;;;;;;;4976750;28;20240;-65
2024/02/08 19:53:27;;;;;;;6.22;3.08;;;;;;;;;;4975772;28;20065;-66
2024/02/08 19:55:55;;;;;;;7.38;2.97;;;;;;;;;;4977542;28;21196;-66
2024/02/08 19:58:23;;;;;;;7.25;3.35;;;;;;;;;;5005205;28;20045;-66
2024/02/08 20:00:52;;;;;;;5.60;2.83;;;;;;;;;;5014540;28;20065;-66
2024/02/08 20:03:26;;;;;;;6.53;2.97;;;;;;;;;;5011578;28;20319;-66
2024/02/08 20:06:21;;;;;;;6.03;3.35;;;;;;;;;;4997410;28;20052;-66
2024/02/08 20:08:56;;;;;;;5.93;2.85;;;;;;;;;;5016494;28;20055;-66
2024/02/08 20:11:24;;;;;;;6.32;3.00;;;;;;;;;;5027347;28;20061;-66
2024/02/08 20:13:54;;;;;;;8.35;3.88;;;;;;;;;;5018180;28;20265;-68
2024/02/08 20:16:26;;;;;;;9.02;3.97;;;;;;;;;;4992069;28;20071;-66
2024/02/08 20:18:56;;;;;;;10.32;3.75;;;;;;;;;;5027890;28;20154;-66
2024/02/08 20:21:25;;;;;;;8.30;3.78;;;;;;;;;;5010697;28;20073;-65
2024/02/08 20:24:02;;;;;;;7.60;3.38;;;;;;;;;;5012402;28;20049;-65
2024/02/08 20:26:30;;;;;;;6.32;3.05;;;;;;;;;;4967659;28;20059;-66
2024/02/08 20:28:57;;;;;;;9.40;3.72;;;;;;;;;;5008344;28;20058;-65
2024/02/08 20:31:26;;;;;;;9.15;3.95;;;;;;;;;;5010517;28;20108;-65
2024/02/08 20:33:56;;;;;;;8.30;3.88;;;;;;;;;;5008252;28;20125;-66
2024/02/08 20:36:25;;;;;;;8.25;3.30;;;;;;;;;;4983312;28;20080;-65
2024/02/08 20:38:53;;;;;;;6.07;3.40;;;;;;;;;;5020772;28;20057;-65
2024/02/08 20:41:23;;;;;;;7.53;3.53;;;;;;;;;;5007082;28;20143;-66
2024/02/08 20:43:55;;;;;;;7.03;3.72;;;;;;;;;;5013245;28;20088;-65
2024/02/08 20:46:23;;;;;;;8.30;3.85;;;;;;;;;;5006990;28;20057;-66
2024/02/08 20:48:54;;;;;;;12.10;4.40;;;;;;;;;;5022829;28;20058;-65
2024/02/08 20:51:22;;;;;;;9.32;4.07;;;;;;;;;;5009401;28;20059;-65
2024/02/08 20:53:52;;;;;;;7.90;4.32;;;;;;;;;;5016510;28;20128;-65
2024/02/08 20:56:25;;;;;;;6.93;3.42;;;;;;;;;;4972252;28;20068;-65
2024/02/08 20:58:58;;;;;;;8.70;3.97;;;;;;;;;;4939535;28;20057;-64
2024/02/08 21:01:45;;;;;;;9.93;4.03;;;;;;;;;;5013872;28;20045;-65
2024/02/08 21:04:19;;;;;;;9.68;3.70;;;;;;;;;;5012953;28;20167;-64
2024/02/08 21:06:47;;;;;;;7.30;3.85;;;;;;;;;;5006127;28;20064;-65
2024/02/08 21:09:18;;;;;;;7.82;3.00;;;;;;;;;;5024790;28;20152;-65
2024/02/08 21:11:46;;;;;;;10.00;4.45;;;;;;;;;;5017199;28;20058;-65
2024/02/08 21:14:16;;;;;;;9.55;3.72;;;;;;;;;;5030927;28;20080;-64
2024/02/08 21:16:43;;;;;;;8.52;3.80;;;;;;;;;;5007383;28;20067;-65
2024/02/08 21:19:13;;;;;;;9.88;4.53;;;;;;;;;;5008832;28;20068;-64
2024/02/08 21:21:42;;;;;;;10.23;4.40;;;;;;;;;;5015051;28;20089;-64
2024/02/08 21:24:10;;;;;;;10.43;4.43;;;;;;;;;;5010763;28;20086;-65
2024/02/08 21:26:39;;;;;;;9.27;4.28;;;;;;;;;;4985951;28;20079;-66
2024/02/08 21:29:10;;;;;;;8.15;4.13;;;;;;;;;;5011646;28;20045;-68
2024/02/08 21:31:40;;;;;;;9.43;4.53;;;;;;;;;;5027066;28;20049;-67
2024/02/08 21:34:12;;;;;;;10.52;4.90;;;;;;;;;;5012435;28;20057;-65
2024/02/08 21:36:45;;;;;;;10.88;4.20;;;;;;;;;;5004138;28;20061;-65
2024/02/08 21:39:18;;;;;;;10.20;4.68;;;;;;;;;;5010605;28;20045;-65
2024/02/08 21:41:51;;;;;;;8.77;4.80;;;;;;;;;;5015401;28;20049;-65
2024/02/08 21:44:20;;;;;;;10.18;4.63;;;;;;;;;;5009907;28;20065;-65
2024/02/08 21:46:49;;;;;;;10.43;4.63;;;;;;;;;;4976275;28;20229;-64
2024/02/08 21:49:17;;;;;;;8.50;4.22;;;;;;;;;;5013221;28;20054;-67
2024/02/08 21:51:47;;;;;;;12.23;4.93;;;;;;;;;;5015010;28;20057;-66
2024/02/08 21:54:17;;;;;;;9.65;5.07;;;;;;;;;;5009406;28;20050;-63
2024/02/08 21:56:46;;;;;;;11.05;4.50;;;;;;;;;;4993597;28;20055;-66
2024/02/08 21:59:18;;;;;;;13.63;4.93;;;;;;;;;;4992285;28;20060;-66
2024/02/08 22:01:45;;;;;;;10.73;5.10;;;;;;;;;;5012438;28;20548;-65
2024/02/08 22:04:11;;;;;;;10.88;4.72;;;;;;;;;;4995359;28;20056;-66
2024/02/08 22:06:39;;;;;;;14.07;6.63;;;;;;;;;;4990667;28;20064;-65
2024/02/08 22:09:11;;;;;;;11.85;5.47;;;;;;;;;;5010798;28;20061;-67
2024/02/08 22:11:47;;;;;;;12.60;5.78;;;;;;;;;;5031221;28;20053;-66
2024/02/08 22:14:19;;;;;;;11.57;5.10;;;;;;;;;;5030557;28;20057;-65
2024/02/08 22:16:51;;;;;;;10.90;5.30;;;;;;;;;;4978075;28;20053;-65
2024/02/08 22:19:20;;;;;;;12.45;5.75;;;;;;;;;;5003298;28;20131;-65
2024/02/08 22:21:47;;;;;;;11.88;5.00;;;;;;;;;;5015125;28;20049;-65
2024/02/08 22:24:20;;;;;;;15.55;5.50;;;;;;;;;;5029229;28;20045;-66
2024/02/08 22:27:01;;;;;;;11.82;4.93;;;;;;;;;;4977959;28;20151;-65
2024/02/08 22:29:33;;;;;;;11.77;5.30;;;;;;;;;;5005541;28;20194;-66
2024/02/08 22:32:05;;;;;;;11.55;4.65;;;;;;;;;;5010886;28;20057;-65